Time;durP1;ratioP1;P1;durP2;ratioP2;P2;SDS_P1;SDS_P2;PMS_P1;PMS_P2;Temp;Humidity;BMP_temperature;BMP_pressure;BME280_temperature;BME280_humidity;BME280_pressure;Samples;Min_cycle;Max_cycle;Signal;HPM_P1;HPM_P2
2022/04/22 00:02:21;;;;;;;6.90;6.30;;;10.60;99.90;;;;;;5053768;28;20482;-87
2022/04/22 00:04:46;;;;;;;6.90;6.20;;;11.40;99.90;;;;;;5071580;28;20407;-87
2022/04/22 00:07:12;;;;;;;6.78;6.25;;;10.60;99.90;;;;;;5061937;28;20382;-86
2022/04/22 00:09:38;;;;;;;6.30;5.90;;;10.80;99.90;;;;;;5067186;28;20386;-86
2022/04/22 00:12:04;;;;;;;7.00;6.50;;;10.50;99.90;;;;;;5071442;28;20391;-86
2022/04/22 00:14:29;;;;;;;6.88;6.38;;;10.30;99.90;;;;;;5071562;28;20387;-87
2022/04/22 00:16:55;;;;;;;6.78;6.18;;;10.30;99.90;;;;;;5071489;28;20466;-86
2022/04/22 00:19:20;;;;;;;6.50;6.10;;;10.30;99.90;;;;;;5071652;28;20388;-86
2022/04/22 00:21:47;;;;;;;7.10;6.50;;;10.10;99.90;;;;;;5071474;28;20414;-86
2022/04/22 00:24:14;;;;;;;7.20;6.70;;;10.00;99.90;;;;;;5071337;28;20409;-87
2022/04/22 00:26:40;;;;;;;6.88;6.38;;;9.90;99.90;;;;;;5071357;28;20873;-86
2022/04/22 00:29:06;;;;;;;7.25;6.70;;;9.90;99.90;;;;;;5071442;28;20392;-86
2022/04/22 00:31:31;;;;;;;7.30;6.70;;;10.00;99.90;;;;;;5071584;28;20388;-86
2022/04/22 00:33:57;;;;;;;7.05;6.55;;;9.90;99.90;;;;;;5071277;28;20416;-86
2022/04/22 00:36:23;;;;;;;6.97;6.47;;;9.90;99.90;;;;;;5072356;28;20386;-86
2022/04/22 00:38:49;;;;;;;7.10;6.60;;;10.00;99.90;;;;;;5061213;28;20405;-86
2022/04/22 00:41:14;;;;;;;7.23;6.73;;;10.10;99.90;;;;;;5053926;28;20886;-86
2022/04/22 00:43:45;;;;;;;6.67;6.20;;;10.00;99.90;;;;;;5054537;28;20397;-86
2022/04/22 00:46:12;;;;;;;7.50;7.00;;;10.10;99.90;;;;;;5056830;28;20478;-86
2022/04/22 00:48:38;;;;;;;7.33;6.83;;;10.10;99.90;;;;;;5074814;28;20384;-86
2022/04/22 00:51:05;;;;;;;7.30;6.80;;;10.00;99.90;;;;;;5074747;28;20474;-86
2022/04/22 00:53:33;;;;;;;6.80;6.30;;;10.00;99.90;;;;;;5057228;28;20410;-86
2022/04/22 00:56:01;;;;;;;7.15;6.60;;;10.20;99.90;;;;;;5060348;28;20385;-86
2022/04/22 00:58:26;;;;;;;7.37;6.80;;;10.00;99.90;;;;;;5072542;28;20391;-87
2022/04/22 01:00:52;;;;;;;7.33;6.83;;;9.80;99.90;;;;;;5067919;28;20410;-86
2022/04/22 01:03:18;;;;;;;7.40;6.80;;;9.80;99.90;;;;;;5074498;28;20388;-86
2022/04/22 01:11:13;;;;;;;7.50;7.00;;;9.90;99.90;;;;;;5059795;28;20462;-86
2022/04/22 01:13:39;;;;;;;7.43;6.93;;;10.00;99.90;;;;;;5070820;28;20391;-86
2022/04/22 01:16:04;;;;;;;6.93;6.43;;;10.00;99.90;;;;;;5074313;28;20483;-86
2022/04/22 01:18:30;;;;;;;7.53;6.97;;;10.10;99.90;;;;;;5074239;28;20871;-86
2022/04/22 01:21:00;;;;;;;7.57;7.03;;;9.90;99.90;;;;;;5074132;28;20780;-86
2022/04/22 01:23:26;;;;;;;8.02;7.43;;;9.90;99.90;;;;;;5074207;28;20467;-86
2022/04/22 01:25:53;;;;;;;8.17;7.47;;;9.90;99.90;;;;;;5074126;28;21006;-86
2022/04/22 01:28:19;;;;;;;7.95;7.40;;;9.90;99.90;;;;;;5074079;28;20383;-86
2022/04/22 01:30:45;;;;;;;8.70;7.57;;;9.50;99.90;;;;;;5073958;28;20398;-86
2022/04/22 01:33:11;;;;;;;7.80;7.20;;;9.90;99.90;;;;;;5055991;28;20399;-87
2022/04/22 01:35:36;;;;;;;8.07;7.47;;;10.40;99.90;;;;;;5073807;28;20468;-86
2022/04/22 01:38:02;;;;;;;8.18;7.57;;;9.60;99.90;;;;;;5066374;28;20765;-87
2022/04/22 01:40:27;;;;;;;8.18;7.47;;;9.70;99.90;;;;;;5067175;28;20482;-87
2022/04/22 01:42:54;;;;;;;7.80;7.30;;;9.80;99.90;;;;;;5073662;28;20379;-86
2022/04/22 01:45:20;;;;;;;8.00;7.40;;;10.00;99.90;;;;;;5055812;28;20932;-86
2022/04/22 01:47:45;;;;;;;8.20;7.60;;;9.80;99.90;;;;;;5069367;28;20389;-86
2022/04/22 01:50:11;;;;;;;8.35;7.65;;;10.00;99.90;;;;;;5063349;28;20403;-87
2022/04/22 01:52:39;;;;;;;8.95;8.25;;;9.70;99.90;;;;;;5073583;28;20737;-85
2022/04/22 01:55:05;;;;;;;8.55;7.93;;;9.80;99.90;;;;;;5073596;28;20466;-86
2022/04/22 01:57:30;;;;;;;8.07;7.53;;;9.70;99.90;;;;;;5073454;28;20384;-87
2022/04/22 01:59:58;;;;;;;8.03;7.53;;;9.70;99.90;;;;;;5064472;28;21018;-86
2022/04/22 02:02:24;;;;;;;8.27;7.60;;;9.70;99.90;;;;;;5073468;28;20411;-86
2022/04/22 02:04:50;;;;;;;8.43;7.83;;;9.70;99.90;;;;;;5073150;28;20391;-86
2022/04/22 02:07:15;;;;;;;8.00;7.40;;;9.80;99.90;;;;;;5063174;28;20393;-86
2022/04/22 02:09:41;;;;;;;7.67;7.17;;;9.90;99.90;;;;;;5053117;28;20889;-86
2022/04/22 02:12:07;;;;;;;7.40;6.90;;;9.90;99.90;;;;;;5053702;28;20392;-85
2022/04/22 02:14:36;;;;;;;7.60;7.10;;;10.00;99.90;;;;;;5064020;28;20386;-85
2022/04/22 02:17:01;;;;;;;8.20;7.50;;;9.90;99.90;;;;;;5048178;28;20405;-85
2022/04/22 02:19:27;;;;;;;7.35;6.85;;;9.90;99.90;;;;;;5061222;28;20526;-85
2022/04/22 02:21:53;;;;;;;7.88;7.18;;;9.90;99.90;;;;;;5071068;28;20410;-85
2022/04/22 02:24:18;;;;;;;8.07;7.28;;;9.90;99.90;;;;;;5060597;28;20403;-85
2022/04/22 02:29:29;;;;;;;7.43;6.93;;;9.90;99.90;;;;;;5044374;28;20935;-85
2022/04/22 02:31:55;;;;;;;7.70;7.20;;;9.90;99.90;;;;;;5071776;28;20384;-85
2022/04/22 02:34:21;;;;;;;8.27;7.57;;;9.60;99.90;;;;;;5053333;28;20400;-85
2022/04/22 02:36:48;;;;;;;7.75;7.15;;;9.70;99.90;;;;;;5063940;28;20418;-85
2022/04/22 02:39:14;;;;;;;7.68;7.07;;;9.50;99.90;;;;;;5058266;28;20474;-86
2022/04/22 02:47:08;;;;;;;9.07;8.38;;;9.20;99.90;;;;;;5065175;28;20383;-86
2022/04/22 02:49:34;;;;;;;9.00;8.32;;;9.30;99.90;;;;;;5072429;28;20391;-85
2022/04/22 02:52:01;;;;;;;8.70;8.10;;;9.40;99.90;;;;;;5072494;28;20387;-86
2022/04/22 02:54:28;;;;;;;8.82;8.23;;;9.30;99.90;;;;;;5072331;28;20411;-85
2022/04/22 02:56:54;;;;;;;10.13;9.13;;;8.90;99.90;;;;;;5072965;28;20387;-86
2022/04/22 02:59:20;;;;;;;9.68;8.82;;;8.80;99.90;;;;;;5061707;28;20382;-86
2022/04/22 03:01:46;;;;;;;10.32;9.52;;;8.80;99.90;;;;;;5058966;28;20941;-86
2022/04/22 03:04:12;;;;;;;10.02;9.32;;;9.50;99.90;;;;;;5062655;28;20417;-86
2022/04/22 03:06:38;;;;;;;9.70;9.07;;;8.90;99.90;;;;;;5066223;28;20381;-86
2022/04/22 03:09:04;;;;;;;9.52;8.82;;;8.90;99.90;;;;;;5063090;28;20475;-86
2022/04/22 03:11:30;;;;;;;10.00;9.30;;;9.30;99.90;;;;;;5058957;28;20387;-86
2022/04/22 03:13:55;;;;;;;10.18;9.48;;;9.20;99.90;;;;;;5071944;28;20387;-87
2022/04/22 03:16:25;;;;;;;10.68;9.80;;;9.30;99.90;;;;;;5072218;28;20390;-87
2022/04/22 03:18:51;;;;;;;10.23;9.52;;;9.10;99.90;;;;;;5072055;28;20937;-86
2022/04/22 03:21:17;;;;;;;11.20;10.40;;;8.90;99.90;;;;;;5072076;28;20404;-85
2022/04/22 03:23:43;;;;;;;10.60;9.87;;;8.90;99.90;;;;;;5072126;28;20383;-86
2022/04/22 03:26:08;;;;;;;10.27;9.57;;;9.30;99.90;;;;;;5072171;28;20400;-86
2022/04/22 03:28:34;;;;;;;11.10;10.10;;;9.20;99.90;;;;;;5071842;28;20387;-86
2022/04/22 03:31:00;;;;;;;10.55;9.77;;;9.10;99.90;;;;;;5071941;28;20399;-86
2022/04/22 03:33:26;;;;;;;10.75;9.95;;;9.20;99.90;;;;;;5071987;28;20380;-85
2022/04/22 03:35:51;;;;;;;10.68;9.98;;;9.10;99.90;;;;;;5071826;28;20779;-85
2022/04/22 03:38:22;;;;;;;11.45;10.50;;;9.20;99.90;;;;;;5062383;28;20742;-86
2022/04/22 03:40:48;;;;;;;11.00;10.20;;;9.40;99.90;;;;;;5051666;28;20496;-85
2022/04/22 03:43:14;;;;;;;10.93;10.07;;;9.30;99.90;;;;;;5060113;28;20384;-85
2022/04/22 03:45:40;;;;;;;10.87;10.07;;;9.50;99.90;;;;;;5071780;28;20415;-86
2022/04/22 03:48:07;;;;;;;10.85;10.05;;;9.10;99.90;;;;;;5071926;28;20388;-87
2022/04/22 03:50:33;;;;;;;10.52;9.82;;;9.00;99.90;;;;;;5071874;28;20789;-85
2022/04/22 03:52:59;;;;;;;10.90;9.95;;;9.10;99.90;;;;;;5071814;28;20479;-85
2022/04/22 03:55:24;;;;;;;11.37;10.47;;;9.00;99.90;;;;;;5050592;28;20405;-85
2022/04/22 04:00:34;;;;;;;11.00;10.10;;;8.70;99.90;;;;;;5053940;28;20552;-86
2022/04/22 04:03:01;;;;;;;10.80;10.00;;;8.90;99.90;;;;;;5068611;28;20832;-85
2022/04/22 04:05:27;;;;;;;11.15;10.25;;;9.00;99.90;;;;;;5071682;28;20383;-86
2022/04/22 04:07:53;;;;;;;10.38;9.57;;;9.00;99.90;;;;;;5057011;28;20416;-85
2022/04/22 04:15:59;;;;;;;10.70;9.90;;;8.90;99.90;;;;;;5075529;28;20367;-84
2022/04/22 04:18:26;;;;;;;10.63;9.82;;;8.90;99.90;;;;;;5075531;28;20748;-84
2022/04/22 04:23:36;;;;;;;10.93;10.02;;;9.00;99.90;;;;;;5055318;28;20373;-85
2022/04/22 04:26:01;;;;;;;11.10;10.20;;;9.10;99.90;;;;;;5073223;28;20740;-85
2022/04/22 04:28:28;;;;;;;11.17;10.27;;;9.00;99.90;;;;;;5073674;28;20745;-85
2022/04/22 04:30:54;;;;;;;10.93;10.18;;;9.10;99.90;;;;;;5074318;28;20841;-85
2022/04/22 04:33:21;;;;;;;11.00;10.15;;;9.00;99.90;;;;;;5073442;28;20441;-85
2022/04/22 04:35:47;;;;;;;11.82;10.93;;;9.10;99.90;;;;;;5057033;28;20891;-86
2022/04/22 04:38:13;;;;;;;10.80;10.00;;;9.00;99.90;;;;;;5061196;28;20402;-85
2022/04/22 04:40:39;;;;;;;11.30;10.40;;;9.00;99.90;;;;;;5052005;28;20452;-84
2022/04/22 04:43:06;;;;;;;10.95;10.20;;;9.10;99.90;;;;;;5060818;28;20396;-84
2022/04/22 04:45:32;;;;;;;11.65;10.85;;;9.60;99.90;;;;;;5074801;28;20376;-83
2022/04/22 04:47:58;;;;;;;11.73;10.85;;;9.00;99.90;;;;;;5054010;28;20724;-83
2022/04/22 04:50:24;;;;;;;10.65;9.93;;;9.30;99.90;;;;;;5062575;28;20399;-83
2022/04/22 04:52:50;;;;;;;12.10;11.20;;;8.90;99.90;;;;;;5057592;28;20414;-83
2022/04/22 04:55:15;;;;;;;11.43;10.63;;;9.70;99.90;;;;;;5074581;28;20726;-83
2022/04/22 04:57:42;;;;;;;12.05;11.15;;;8.90;99.90;;;;;;5074530;28;20795;-83
2022/04/22 05:00:10;;;;;;;11.30;10.50;;;8.90;99.90;;;;;;5057773;28;20439;-83
2022/04/22 05:02:36;;;;;;;11.68;10.70;;;8.90;99.90;;;;;;5065152;28;20437;-83
2022/04/22 05:05:05;;;;;;;11.95;11.00;;;9.00;99.90;;;;;;5056033;28;20404;-83
2022/04/22 05:07:31;;;;;;;12.10;11.20;;;9.00;99.90;;;;;;5056835;28;20393;-83
2022/04/22 05:09:57;;;;;;;11.98;11.15;;;9.00;99.90;;;;;;5052971;28;20389;-83
2022/04/22 05:12:22;;;;;;;12.63;11.63;;;8.90;99.90;;;;;;5052352;28;20934;-83
2022/04/22 05:14:48;;;;;;;12.60;11.40;;;9.20;99.90;;;;;;5056280;28;20388;-83
2022/04/22 05:17:14;;;;;;;12.60;11.70;;;8.90;99.90;;;;;;5074370;28;20376;-83
2022/04/22 05:19:40;;;;;;;13.43;12.23;;;8.50;99.90;;;;;;5058460;28;20435;-82
2022/04/22 05:22:06;;;;;;;13.02;12.05;;;8.80;99.90;;;;;;5057614;28;20409;-82
2022/04/22 05:24:32;;;;;;;12.80;11.90;;;8.80;99.90;;;;;;5073486;28;20384;-82
2022/04/22 05:26:59;;;;;;;13.25;12.15;;;9.90;99.90;;;;;;5074077;28;20384;-82
2022/04/22 05:34:54;;;;;;;13.57;12.57;;;8.80;99.90;;;;;;5058156;28;20820;-83
2022/04/22 05:37:20;;;;;;;14.27;12.77;;;8.90;99.90;;;;;;5053819;28;20432;-83
2022/04/22 05:39:45;;;;;;;13.87;12.77;;;8.90;99.90;;;;;;5057688;28;20401;-83
2022/04/22 05:42:12;;;;;;;13.18;12.18;;;9.00;99.90;;;;;;5054707;28;20393;-83
2022/04/22 05:44:38;;;;;;;14.40;13.25;;;8.90;99.90;;;;;;5056019;28;20413;-83
2022/04/22 05:47:07;;;;;;;14.63;13.52;;;8.90;99.90;;;;;;5056201;28;20381;-83
2022/04/22 05:49:33;;;;;;;14.43;13.40;;;8.70;99.90;;;;;;5062816;28;20463;-83
2022/04/22 05:51:59;;;;;;;14.50;13.40;;;8.70;99.90;;;;;;5054128;28;20390;-83
2022/04/22 05:54:24;;;;;;;14.50;13.37;;;9.80;99.90;;;;;;5055842;28;20453;-84
2022/04/22 05:56:50;;;;;;;14.03;12.90;;;8.90;99.90;;;;;;5073934;28;20387;-84
2022/04/22 05:59:15;;;;;;;15.17;13.87;;;9.00;99.90;;;;;;5059812;28;20389;-83
2022/04/22 06:01:41;;;;;;;14.70;13.50;;;9.10;99.90;;;;;;5056144;28;20826;-83
2022/04/22 06:04:07;;;;;;;15.10;13.90;;;9.20;99.90;;;;;;5073830;28;20408;-83
2022/04/22 06:06:32;;;;;;;15.57;14.27;;;9.10;99.90;;;;;;5053312;28;20428;-84
2022/04/22 06:11:42;;;;;;;15.55;14.25;;;10.10;99.90;;;;;;5073443;28;20897;-84
2022/04/22 06:14:09;;;;;;;15.00;13.80;;;8.90;99.90;;;;;;5073144;28;20394;-84
2022/04/22 06:16:35;;;;;;;15.13;13.90;;;9.10;99.90;;;;;;5071025;28;20380;-84
2022/04/22 06:19:01;;;;;;;16.13;14.60;;;9.30;99.90;;;;;;5072218;28;20391;-83
2022/04/22 06:21:29;;;;;;;15.38;14.18;;;9.30;99.90;;;;;;5072171;28;20400;-82
2022/04/22 06:23:54;;;;;;;14.68;13.57;;;9.80;99.90;;;;;;5051987;28;20449;-84
2022/04/22 06:26:20;;;;;;;16.17;14.87;;;10.20;99.90;;;;;;5052861;28;20393;-84
2022/04/22 06:28:46;;;;;;;15.93;14.63;;;9.30;99.90;;;;;;5054029;28;20431;-84
2022/04/22 06:31:11;;;;;;;16.70;15.20;;;9.20;99.90;;;;;;5072849;28;20419;-84
2022/04/22 06:33:38;;;;;;;16.40;15.00;;;9.10;99.90;;;;;;5060323;28;20405;-83
2022/04/22 06:36:12;;;;;;;17.55;16.05;;;9.20;99.90;;;;;;5071975;28;20391;-84
2022/04/22 06:38:39;;;;;;;17.02;15.52;;;9.00;99.90;;;;;;5068466;28;20393;-83
2022/04/22 06:46:33;;;;;;;17.63;16.23;;;9.10;99.90;;;;;;5060336;28;20433;-84
2022/04/22 06:48:59;;;;;;;17.65;16.00;;;9.10;99.90;;;;;;5072683;28;20853;-84
2022/04/22 06:51:25;;;;;;;17.95;16.45;;;9.10;99.90;;;;;;5070205;28;20391;-84
2022/04/22 06:53:52;;;;;;;18.38;16.70;;;9.20;99.90;;;;;;5048397;28;20874;-84
2022/04/22 06:56:23;;;;;;;17.85;16.25;;;9.10;99.90;;;;;;5068074;28;20384;-84
2022/04/22 06:58:51;;;;;;;18.52;16.90;;;9.20;99.90;;;;;;5059653;28;20380;-84
2022/04/22 07:01:17;;;;;;;18.80;16.98;;;9.30;99.90;;;;;;5055012;28;20433;-83
2022/04/22 07:03:43;;;;;;;18.48;16.63;;;9.40;99.90;;;;;;5064837;28;20782;-84
2022/04/22 07:06:09;;;;;;;18.73;17.03;;;9.50;99.90;;;;;;5051271;28;20389;-84
2022/04/22 07:08:35;;;;;;;18.42;16.85;;;9.30;99.90;;;;;;5052523;28;20465;-84
2022/04/22 07:11:03;;;;;;;18.65;16.95;;;9.30;99.90;;;;;;5065159;28;20886;-83
2022/04/22 07:13:29;;;;;;;18.60;17.00;;;9.30;99.90;;;;;;5065257;28;20385;-84
2022/04/22 07:15:56;;;;;;;18.83;17.02;;;9.40;99.90;;;;;;5059376;28;20381;-84
2022/04/22 07:18:22;;;;;;;18.40;16.83;;;9.60;99.90;;;;;;5057381;28;20408;-84
2022/04/22 07:20:48;;;;;;;18.90;17.27;;;9.90;99.90;;;;;;5051218;28;20747;-84
2022/04/22 07:23:14;;;;;;;18.98;17.38;;;9.90;99.90;;;;;;5051597;28;20761;-84
2022/04/22 07:25:43;;;;;;;18.77;17.13;;;10.00;99.90;;;;;;5051696;28;20404;-84
2022/04/22 07:28:09;;;;;;;19.52;17.77;;;9.90;99.90;;;;;;5051865;28;20393;-84
2022/04/22 07:30:37;;;;;;;18.92;17.33;;;9.90;99.90;;;;;;5051721;28;20401;-84
2022/04/22 07:33:03;;;;;;;19.30;17.60;;;9.80;99.90;;;;;;5051352;28;20945;-84
2022/04/22 07:35:29;;;;;;;19.95;18.27;;;9.90;99.90;;;;;;5051646;28;20473;-84
2022/04/22 07:37:54;;;;;;;18.90;17.30;;;9.90;99.90;;;;;;5072473;28;20390;-84
2022/04/22 07:40:21;;;;;;;19.90;18.10;;;10.00;99.90;;;;;;5072121;28;20404;-84
2022/04/22 07:48:19;;;;;;;19.83;18.13;;;10.20;99.90;;;;;;5076202;28;20370;-85
2022/04/22 07:50:48;;;;;;;19.50;17.90;;;10.40;99.90;;;;;;5075835;28;20376;-84
2022/04/22 07:53:18;;;;;;;18.50;16.80;;;10.60;99.90;;;;;;5075913;28;20392;-84
2022/04/22 07:55:44;;;;;;;19.95;18.23;;;10.80;99.90;;;;;;5075777;28;20383;-84
2022/04/22 07:58:13;;;;;;;20.27;18.47;;;11.40;99.90;;;;;;5072768;28;20944;-84
2022/04/22 08:00:41;;;;;;;19.65;18.05;;;10.80;99.90;;;;;;5053056;28;20404;-84
2022/04/22 08:03:08;;;;;;;20.30;18.60;;;10.80;99.90;;;;;;5057556;28;20906;-84
2022/04/22 08:05:34;;;;;;;19.73;18.00;;;10.70;99.90;;;;;;5055885;28;20435;-84
2022/04/22 08:08:00;;;;;;;19.58;17.98;;;10.90;99.90;;;;;;5057471;28;20865;-84
2022/04/22 08:10:26;;;;;;;19.88;18.05;;;11.00;99.90;;;;;;5067255;28;20396;-84
2022/04/22 08:12:51;;;;;;;19.37;17.53;;;11.10;99.90;;;;;;5075672;28;20910;-84
2022/04/22 08:15:19;;;;;;;20.87;19.10;;;11.40;99.90;;;;;;5072908;28;20518;-84
2022/04/22 08:17:45;;;;;;;21.35;19.45;;;11.40;99.90;;;;;;5059869;28;20393;-83
2022/04/22 08:20:12;;;;;;;20.02;18.33;;;11.40;99.90;;;;;;5058654;28;20934;-84
2022/04/22 08:22:38;;;;;;;19.90;18.13;;;11.50;99.90;;;;;;5074281;28;20380;-83
2022/04/22 08:25:04;;;;;;;21.03;19.10;;;11.60;99.90;;;;;;5062815;28;20479;-84
2022/04/22 08:27:30;;;;;;;21.52;19.48;;;11.60;99.90;;;;;;5073862;28;20462;-84
2022/04/22 08:29:56;;;;;;;21.42;19.33;;;11.60;99.90;;;;;;5067384;28;20742;-84
2022/04/22 08:32:22;;;;;;;21.00;19.00;;;11.50;99.90;;;;;;5057614;28;20393;-83
2022/04/22 08:34:47;;;;;;;21.37;19.37;;;11.40;99.90;;;;;;5039527;28;20379;-84
2022/04/22 08:37:13;;;;;;;21.10;19.20;;;11.60;99.90;;;;;;5050878;28;20395;-83
2022/04/22 08:39:39;;;;;;;20.10;18.40;;;11.70;99.90;;;;;;5061223;28;20401;-83
2022/04/22 08:42:05;;;;;;;21.47;19.60;;;11.90;99.90;;;;;;5056047;28;20404;-84
2022/04/22 08:44:31;;;;;;;20.27;18.58;;;11.90;99.90;;;;;;5073475;28;20437;-85
2022/04/22 08:50:02;;;;;;;21.15;19.45;;;12.40;99.90;;;;;;5074945;28;20483;-84
2022/04/22 08:52:33;;;;;;;22.70;20.50;;;12.20;99.90;;;;;;5074850;28;20384;-85
2022/04/22 08:55:00;;;;;;;22.05;20.17;;;12.30;99.90;;;;;;5075027;28;20779;-85
2022/04/22 08:57:28;;;;;;;22.63;20.55;;;12.40;99.90;;;;;;5074602;28;20380;-86
2022/04/22 08:59:58;;;;;;;22.15;20.15;;;12.50;99.90;;;;;;5061823;28;20779;-84
2022/04/22 09:02:24;;;;;;;22.42;20.42;;;12.60;99.90;;;;;;5056279;28;20476;-85
2022/04/22 09:04:50;;;;;;;22.33;20.30;;;12.60;99.90;;;;;;5072405;28;20894;-86
2022/04/22 09:07:19;;;;;;;22.17;20.27;;;12.50;99.90;;;;;;5056655;28;20396;-86
2022/04/22 09:09:51;;;;;;;21.50;19.58;;;12.70;99.90;;;;;;5070034;28;20385;-85
2022/04/22 09:12:24;;;;;;;21.23;19.33;;;12.90;99.90;;;;;;5049561;28;20869;-85
2022/04/22 09:14:52;;;;;;;23.02;20.65;;;13.10;99.90;;;;;;5074338;28;20419;-85
2022/04/22 09:17:25;;;;;;;21.10;19.13;;;13.20;99.90;;;;;;5062289;28;20384;-86
2022/04/22 09:19:52;;;;;;;21.55;19.63;;;13.30;99.90;;;;;;5066268;28;20425;-85
2022/04/22 09:22:19;;;;;;;22.02;20.10;;;13.40;99.90;;;;;;5056680;28;20388;-85
2022/04/22 09:24:56;;;;;;;20.52;18.83;;;13.70;99.90;;;;;;5074395;28;20372;-85
2022/04/22 09:27:48;;;;;;;21.45;19.55;;;13.90;99.90;;;;;;5075665;28;20402;-85
2022/04/22 09:30:13;;;;;;;22.02;20.08;;;13.90;99.90;;;;;;5045592;28;20736;-85
2022/04/22 09:32:41;;;;;;;21.25;19.35;;;14.20;99.90;;;;;;5062092;28;20384;-88
2022/04/22 09:35:16;;;;;;;21.60;19.50;;;14.30;99.90;;;;;;5052274;28;20408;-85
2022/04/22 09:43:31;;;;;;;22.10;20.40;;;14.30;99.90;;;;;;5054584;28;20372;-85
2022/04/22 09:45:57;;;;;;;21.63;19.70;;;14.30;99.90;;;;;;5067188;28;20469;-85
2022/04/22 09:48:23;;;;;;;21.50;19.40;;;14.40;99.90;;;;;;5048716;28;20474;-84
2022/04/22 09:50:53;;;;;;;21.13;19.15;;;14.70;99.90;;;;;;5041810;28;20401;-84
2022/04/22 09:53:33;;;;;;;21.33;19.48;;;14.70;99.90;;;;;;5050753;28;20402;-86
2022/04/22 09:56:08;;;;;;;20.45;18.73;;;14.70;99.90;;;;;;5053892;28;20415;-85
2022/04/22 09:58:34;;;;;;;21.13;19.15;;;14.70;99.90;;;;;;5051730;28;20385;-85
2022/04/22 10:01:04;;;;;;;21.55;19.48;;;14.70;99.90;;;;;;5051506;28;20967;-86
2022/04/22 10:03:36;;;;;;;20.35;18.75;;;14.60;99.90;;;;;;5050188;28;20819;-85
2022/04/22 10:06:03;;;;;;;21.13;19.23;;;14.70;99.90;;;;;;5042226;28;20478;-84
2022/04/22 10:08:36;;;;;;;21.52;19.77;;;14.70;99.90;;;;;;5045348;28;20391;-85
2022/04/22 10:11:04;;;;;;;20.70;18.98;;;14.80;99.90;;;;;;5060608;28;20413;-86
2022/04/22 10:13:46;;;;;;;21.42;19.50;;;15.00;99.90;;;;;;5054864;28;20886;-86
2022/04/22 10:16:13;;;;;;;20.87;19.13;;;15.20;99.90;;;;;;5047248;28;20429;-86
2022/04/22 10:18:40;;;;;;;21.03;19.33;;;15.30;99.90;;;;;;5045728;28;20856;-86
2022/04/22 10:21:06;;;;;;;20.80;19.10;;;15.10;99.90;;;;;;5052443;28;20401;-85
2022/04/22 10:23:32;;;;;;;21.63;19.63;;;15.10;99.90;;;;;;5052049;28;21170;-85
2022/04/22 10:25:59;;;;;;;21.45;19.73;;;15.20;99.90;;;;;;5054347;28;20389;-86
2022/04/22 10:28:27;;;;;;;21.90;20.02;;;15.20;99.90;;;;;;5050295;28;20461;-85
2022/04/22 10:30:54;;;;;;;21.75;19.95;;;15.40;99.90;;;;;;5053130;28;20773;-86
2022/04/22 10:33:28;;;;;;;21.35;19.58;;;15.20;99.90;;;;;;5054060;28;20378;-85
2022/04/22 10:35:59;;;;;;;21.90;20.05;;;15.20;99.90;;;;;;5052897;28;20466;-85
2022/04/22 10:38:29;;;;;;;21.87;20.13;;;15.40;99.90;;;;;;5037045;28;20395;-85
2022/04/22 10:40:55;;;;;;;21.10;19.40;;;15.40;99.90;;;;;;5056656;28;20408;-85
2022/04/22 10:43:24;;;;;;;21.15;19.25;;;15.60;99.90;;;;;;5068789;28;20385;-85
2022/04/22 10:48:39;;;;;;;21.90;20.17;;;15.90;99.90;;;;;;5054154;28;20364;-86
2022/04/22 10:51:08;;;;;;;22.33;20.42;;;16.00;99.90;;;;;;5054744;28;20411;-86
2022/04/22 10:53:46;;;;;;;21.27;19.47;;;16.10;99.90;;;;;;5047894;28;20390;-86
2022/04/22 10:56:28;;;;;;;21.80;20.07;;;16.20;99.90;;;;;;5046909;28;20383;-86
2022/04/22 10:59:22;;;;;;;21.95;20.17;;;16.30;99.90;;;;;;5056422;28;20389;-87
2022/04/22 11:01:48;;;;;;;21.70;19.77;;;16.30;99.90;;;;;;5052263;28;20405;-86
2022/04/22 11:04:19;;;;;;;20.13;18.50;;;16.00;99.90;;;;;;5052483;28;20726;-86
2022/04/22 11:06:45;;;;;;;21.48;19.58;;;16.00;99.90;;;;;;5072093;28;20376;-86
2022/04/22 11:09:22;;;;;;;21.23;19.13;;;15.90;99.90;;;;;;5050570;28;20554;-86
2022/04/22 11:11:48;;;;;;;21.50;19.70;;;15.90;99.90;;;;;;5051473;28;20463;-85
2022/04/22 11:14:25;;;;;;;22.25;20.35;;;16.00;99.90;;;;;;5052068;28;20432;-86
2022/04/22 11:16:52;;;;;;;20.23;18.55;;;16.40;99.90;;;;;;5066873;28;20470;-86
2022/04/22 11:19:18;;;;;;;20.30;18.70;;;16.50;99.90;;;;;;5070237;28;20594;-85
2022/04/22 11:21:45;;;;;;;20.30;18.70;;;16.60;99.90;;;;;;5057950;28;20523;-85
2022/04/22 11:24:17;;;;;;;19.08;17.58;;;16.70;99.90;;;;;;5057019;28;20387;-86
2022/04/22 11:26:44;;;;;;;19.80;18.23;;;16.80;99.90;;;;;;5054060;28;20401;-87
2022/04/22 11:29:10;;;;;;;19.42;17.90;;;17.00;99.90;;;;;;5052917;28;20382;-86
2022/04/22 11:31:36;;;;;;;20.30;18.73;;;17.10;99.90;;;;;;5048573;28;20387;-85
2022/04/22 11:34:10;;;;;;;21.92;20.13;;;17.10;99.90;;;;;;5051173;28;20419;-87
2022/04/22 11:36:49;;;;;;;20.30;18.52;;;17.00;99.90;;;;;;5055464;28;20385;-85
2022/04/22 11:39:22;;;;;;;19.67;17.97;;;17.00;99.90;;;;;;5044940;28;20880;-86
2022/04/22 11:41:57;;;;;;;19.90;18.30;;;17.20;99.90;;;;;;5052171;28;20492;-86
2022/04/22 11:44:30;;;;;;;20.60;18.70;;;17.10;99.90;;;;;;5061958;28;20864;-86
2022/04/22 11:47:00;;;;;;;19.42;17.90;;;17.20;99.90;;;;;;5052767;28;20424;-86
2022/04/22 11:49:31;;;;;;;18.90;17.23;;;17.40;99.90;;;;;;5055062;28;20529;-86
2022/04/22 11:51:57;;;;;;;18.80;17.23;;;17.70;99.90;;;;;;5052572;28;20866;-86
2022/04/22 11:54:24;;;;;;;18.27;17.02;;;17.70;99.90;;;;;;5053928;28;20397;-86
2022/04/22 11:56:51;;;;;;;18.90;17.40;;;17.70;99.90;;;;;;5071887;28;20425;-87
2022/04/22 11:59:19;;;;;;;18.05;16.65;;;17.70;99.90;;;;;;5059850;28;20489;-86
2022/04/22 12:10:04;;;;;;;18.10;16.50;;;17.70;99.90;;;;;;5067466;28;20435;-86
2022/04/22 12:12:33;;;;;;;18.20;16.80;;;17.80;99.90;;;;;;5051544;28;20382;-87
2022/04/22 12:15:04;;;;;;;19.13;17.50;;;17.70;99.90;;;;;;5053410;28;20720;-86
2022/04/22 12:17:30;;;;;;;18.70;17.10;;;17.50;99.90;;;;;;5071666;28;20380;-86
2022/04/22 12:19:57;;;;;;;18.55;16.95;;;17.50;99.90;;;;;;5071918;28;20741;-87
2022/04/22 12:22:24;;;;;;;18.37;16.97;;;17.80;99.90;;;;;;5057550;28;20529;-87
2022/04/22 12:25:16;;;;;;;19.15;17.55;;;18.10;99.90;;;;;;5062359;28;20395;-86
2022/04/22 12:27:43;;;;;;;17.83;16.33;;;18.20;99.60;;;;;;5071541;28;20386;-88
2022/04/22 12:30:10;;;;;;;18.98;17.48;;;18.00;99.70;;;;;;5071430;28;20474;-86
2022/04/22 12:32:37;;;;;;;19.45;17.75;;;17.80;99.90;;;;;;5065261;28;20459;-88
2022/04/22 12:35:13;;;;;;;19.67;18.02;;;17.90;99.90;;;;;;5066343;28;20800;-89
2022/04/22 12:37:43;;;;;;;19.27;17.77;;;17.80;99.90;;;;;;5057205;28;20384;-89
2022/04/22 12:40:10;;;;;;;18.10;16.60;;;18.20;99.90;;;;;;5075247;28;20780;-88
2022/04/22 12:42:36;;;;;;;18.83;17.38;;;18.50;99.90;;;;;;5075014;28;20383;-89
2022/04/22 12:53:33;;;;;;;16.35;15.10;;;18.50;98.90;;;;;;5053482;28;20432;-89
2022/04/22 12:56:00;;;;;;;16.15;14.98;;;18.50;98.50;;;;;;5053370;28;20394;-90
2022/04/22 12:58:26;;;;;;;18.23;16.63;;;18.40;98.90;;;;;;5062499;28;20483;-87
2022/04/22 13:00:55;;;;;;;17.70;16.33;;;18.60;99.00;;;;;;5061132;28;20504;-90
2022/04/22 13:03:21;;;;;;;17.65;16.15;;;18.60;99.40;;;;;;5074445;28;20459;-89
2022/04/22 13:05:48;;;;;;;16.75;15.25;;;18.60;99.60;;;;;;5063338;28;20402;-88
2022/04/22 13:08:15;;;;;;;15.02;13.93;;;18.80;98.40;;;;;;5072522;28;20864;-87
2022/04/22 13:10:41;;;;;;;17.58;15.90;;;18.90;98.70;;;;;;5070128;28;20385;-88
2022/04/22 13:13:08;;;;;;;15.87;14.67;;;19.00;97.90;;;;;;5066942;28;20459;-88
2022/04/22 13:15:33;;;;;;;17.50;16.13;;;19.10;98.80;;;;;;5065531;28;20380;-88
2022/04/22 13:17:59;;;;;;;17.85;16.42;;;19.20;98.70;;;;;;5074456;28;20391;-87
2022/04/22 13:20:25;;;;;;;17.48;16.05;;;19.00;98.60;;;;;;5074292;28;20430;-89
2022/04/22 13:22:50;;;;;;;16.75;15.52;;;18.80;98.40;;;;;;5068821;28;20393;-89
2022/04/22 13:25:21;;;;;;;15.00;13.60;;;18.90;98.10;;;;;;5053554;28;20420;-89
2022/04/22 13:27:47;;;;;;;17.10;15.60;;;18.80;98.30;;;;;;5054714;28;20393;-88
2022/04/22 13:30:15;;;;;;;14.68;13.50;;;18.80;98.80;;;;;;5067396;28;20387;-87
2022/04/22 13:32:41;;;;;;;16.67;15.27;;;18.80;98.30;;;;;;5058371;28;20384;-86
2022/04/22 13:35:10;;;;;;;16.10;15.00;;;18.90;97.90;;;;;;5053066;28;20765;-88
2022/04/22 13:37:36;;;;;;;15.90;14.70;;;19.00;98.20;;;;;;5055681;28;20744;-88
2022/04/22 13:40:02;;;;;;;15.20;14.00;;;19.00;97.70;;;;;;5055403;28;20469;-87
2022/04/22 13:42:27;;;;;;;16.27;15.07;;;18.90;98.10;;;;;;5056757;28;21094;-87
2022/04/22 13:53:08;;;;;;;19.38;17.67;;;18.90;98.70;;;;;;5057501;28;20415;-93
2022/04/22 13:55:38;;;;;;;16.92;15.63;;;18.90;98.90;;;;;;5053486;28;20397;-88
2022/04/22 13:58:03;;;;;;;15.73;14.38;;;19.00;98.30;;;;;;5066050;28;20879;-89